Wetterdaten: Woche 06.06.11 - 12.06.11 (KW23)
Datum Zeit Temperatur Luftfeuchte Luftdruck Niederschlag Windrichtung Sonnenschein Solar Wind
06.06.2011 00:00 15,4 C 91 % 1003,7 hPa 0,0 l/m N 0,00 h 0 W/m 0,0 km/h (0 Bft)
06.06.2011 01:00 14,4 C 93 % 1003,3 hPa 0,0 l/m N 0,00 h 0 W/m 0,7 km/h (0 Bft)
06.06.2011 02:00 13,8 C 94 % 1002,8 hPa 0,0 l/m NW 0,00 h 0 W/m 1,1 km/h (0 Bft)
06.06.2011 03:00 13,1 C 96 % 1002,5 hPa 0,0 l/m N 0,00 h 0 W/m 0,1 km/h (0 Bft)
06.06.2011 04:00 12,8 C 97 % 1002,6 hPa 0,0 l/m NW 0,00 h 0 W/m 1,9 km/h (1 Bft)
06.06.2011 05:00 13,2 C 95 % 1002,8 hPa 0,0 l/m N 0,00 h 6 W/m 1,6 km/h (1 Bft)
06.06.2011 06:00 13,2 C 96 % 1003,3 hPa 0,4 l/m NW 0,00 h 12 W/m 3,9 km/h (1 Bft)
06.06.2011 07:00 13,9 C 97 % 1003,3 hPa 0,6 l/m NW 0,00 h 39 W/m 3,1 km/h (1 Bft)
06.06.2011 08:00 14,9 C 96 % 1003,6 hPa 0,0 l/m SW 0,00 h 96 W/m 6,4 km/h (2 Bft)
06.06.2011 09:00 15,6 C 95 % 1003,9 hPa 0,0 l/m W-SW 0,00 h 152 W/m 4,8 km/h (1 Bft)
06.06.2011 10:00 17,2 C 90 % 1004,0 hPa 0,0 l/m W-SW 0,00 h 276 W/m 8,6 km/h (2 Bft)
06.06.2011 11:00 18,6 C 83 % 1003,9 hPa 0,0 l/m SW 0,42 h 449 W/m 10,4 km/h (2 Bft)
06.06.2011 12:00 19,9 C 74 % 1003,8 hPa 0,0 l/m W-NW 0,58 h 602 W/m 12,1 km/h (2 Bft)
06.06.2011 13:00 20,5 C 69 % 1003,7 hPa 0,0 l/m W-NW 0,17 h 387 W/m 14,2 km/h (3 Bft)
06.06.2011 14:00 19,4 C 71 % 1004,2 hPa 0,2 l/m W-SW 0,00 h 109 W/m 15,5 km/h (3 Bft)
06.06.2011 15:00 14,6 C 86 % 1004,2 hPa 1,2 l/m W-SW 0,08 h 202 W/m 32,2 km/h (5 Bft)
06.06.2011 16:00 16,5 C 84 % 1003,7 hPa 0,0 l/m W 0,50 h 338 W/m 18,8 km/h (3 Bft)
06.06.2011 17:00 17,7 C 82 % 1004,4 hPa 0,0 l/m W-SW 0,33 h 300 W/m 14,0 km/h (3 Bft)
06.06.2011 18:00 18,4 C 79 % 1004,3 hPa 0,0 l/m SW 0,25 h 205 W/m 10,4 km/h (2 Bft)
06.06.2011 19:00 18,3 C 78 % 1004,1 hPa 0,2 l/m SW 0,58 h 147 W/m 10,6 km/h (2 Bft)
06.06.2011 20:00 16,8 C 82 % 1004,3 hPa 0,0 l/m S-SW 0,00 h 25 W/m 5,1 km/h (1 Bft)
06.06.2011 21:00 15,0 C 89 % 1004,9 hPa 0,0 l/m N 0,00 h 6 W/m 0,5 km/h (0 Bft)
06.06.2011 22:00 14,0 C 92 % 1005,1 hPa 0,0 l/m N 0,00 h 0 W/m 0,0 km/h (0 Bft)
06.06.2011 23:00 13,6 C 93 % 1005,3 hPa 0,0 l/m N-NW 0,00 h 0 W/m 2,0 km/h (1 Bft)
07.06.2011 00:00 13,2 C 93 % 1005,1 hPa 0,0 l/m N 0,00 h 0 W/m 0,7 km/h (0 Bft)
07.06.2011 01:00 12,2 C 96 % 1004,9 hPa 0,0 l/m N-NW 0,00 h 0 W/m 2,1 km/h (1 Bft)
07.06.2011 02:00 11,7 C 97 % 1005,0 hPa 0,0 l/m N 0,00 h 0 W/m 0,0 km/h (0 Bft)
07.06.2011 03:00 11,1 C 97 % 1004,9 hPa 0,0 l/m N 0,00 h 0 W/m 0,0 km/h (0 Bft)
07.06.2011 04:00 10,5 C 97 % 1005,1 hPa 0,0 l/m N 0,00 h 0 W/m 0,3 km/h (0 Bft)
07.06.2011 05:00 10,1 C 98 % 1005,1 hPa 0,0 l/m N 0,00 h 9 W/m 0,0 km/h (0 Bft)
07.06.2011 06:00 10,6 C 98 % 1005,2 hPa 0,0 l/m N 0,50 h 78 W/m 0,4 km/h (0 Bft)
07.06.2011 07:00 13,5 C 93 % 1005,2 hPa 0,0 l/m N 1,00 h 251 W/m 2,8 km/h (1 Bft)
07.06.2011 08:00 16,3 C 82 % 1005,4 hPa 0,0 l/m SO 1,00 h 428 W/m 3,9 km/h (1 Bft)
07.06.2011 09:00 18,2 C 72 % 1005,2 hPa 0,0 l/m SO 0,75 h 420 W/m 5,1 km/h (1 Bft)
07.06.2011 10:00 20,3 C 64 % 1004,9 hPa 0,0 l/m O 0,92 h 714 W/m 7,4 km/h (2 Bft)
07.06.2011 11:00 21,9 C 54 % 1004,5 hPa 0,0 l/m O-NO 1,00 h 858 W/m 9,3 km/h (2 Bft)
07.06.2011 12:00 23,1 C 49 % 1003,8 hPa 0,0 l/m NO 1,00 h 933 W/m 10,5 km/h (2 Bft)
07.06.2011 13:00 23,5 C 47 % 1003,3 hPa 0,0 l/m O-SO 0,83 h 607 W/m 11,9 km/h (2 Bft)
07.06.2011 14:00 23,8 C 45 % 1002,7 hPa 0,0 l/m O-SO 0,58 h 482 W/m 12,5 km/h (3 Bft)
07.06.2011 15:00 24,1 C 43 % 1002,1 hPa 0,0 l/m O-NO 0,58 h 565 W/m 15,2 km/h (3 Bft)
07.06.2011 16:00 24,2 C 46 % 1001,4 hPa 0,0 l/m O 0,42 h 398 W/m 16,4 km/h (3 Bft)
07.06.2011 17:00 23,7 C 48 % 1001,2 hPa 0,0 l/m O-SO 0,17 h 221 W/m 16,4 km/h (3 Bft)
07.06.2011 18:00 22,4 C 52 % 1000,8 hPa 0,0 l/m O 0,00 h 77 W/m 9,4 km/h (2 Bft)
07.06.2011 19:00 21,7 C 54 % 1000,4 hPa 0,0 l/m O 0,00 h 41 W/m 8,0 km/h (2 Bft)
07.06.2011 20:00 21,1 C 58 % 999,9 hPa 0,0 l/m O 0,00 h 14 W/m 6,1 km/h (2 Bft)
07.06.2011 21:00 20,0 C 64 % 999,9 hPa 0,0 l/m SW 0,00 h 0 W/m 3,9 km/h (1 Bft)
07.06.2011 22:00 18,2 C 78 % 1000,5 hPa 0,2 l/m N 0,00 h 0 W/m 1,9 km/h (1 Bft)
07.06.2011 23:00 16,4 C 90 % 1000,2 hPa 0,2 l/m NW 0,00 h 0 W/m 2,9 km/h (1 Bft)
08.06.2011 00:00 16,0 C 93 % 1000,3 hPa 0,0 l/m W-SW 0,00 h 0 W/m 2,8 km/h (1 Bft)
08.06.2011 01:00 15,6 C 94 % 1000,6 hPa 3,6 l/m W-SW 0,00 h 0 W/m 7,5 km/h (2 Bft)
08.06.2011 02:00 15,1 C 96 % 1000,7 hPa 0,2 l/m W-SW 0,00 h 0 W/m 3,2 km/h (1 Bft)
08.06.2011 03:00 14,6 C 96 % 1001,1 hPa 0,0 l/m W-SW 0,00 h 0 W/m 8,4 km/h (2 Bft)
08.06.2011 04:00 13,9 C 96 % 1001,5 hPa 0,0 l/m W 0,00 h 0 W/m 6,4 km/h (2 Bft)
08.06.2011 05:00 13,6 C 96 % 1001,7 hPa 0,0 l/m W-SW 0,00 h 6 W/m 10,5 km/h (2 Bft)
08.06.2011 06:00 13,6 C 96 % 1002,0 hPa 0,0 l/m SW 0,00 h 21 W/m 9,8 km/h (2 Bft)
08.06.2011 07:00 13,9 C 95 % 1002,4 hPa 0,0 l/m S-SW 0,00 h 65 W/m 9,4 km/h (2 Bft)
08.06.2011 08:00 14,6 C 92 % 1002,4 hPa 0,0 l/m W-SW 0,08 h 117 W/m 13,2 km/h (3 Bft)
08.06.2011 09:00 15,1 C 89 % 1002,6 hPa 0,0 l/m W-SW 0,00 h 142 W/m 12,9 km/h (3 Bft)
08.06.2011 10:00 15,9 C 85 % 1002,8 hPa 0,0 l/m SW 0,00 h 189 W/m 15,7 km/h (3 Bft)
08.06.2011 11:00 16,1 C 84 % 1003,3 hPa 0,0 l/m W 0,00 h 151 W/m 9,4 km/h (2 Bft)
08.06.2011 12:00 16,7 C 81 % 1003,7 hPa 0,0 l/m W 0,00 h 207 W/m 13,8 km/h (3 Bft)
08.06.2011 13:00 16,4 C 83 % 1003,8 hPa 0,0 l/m W-NW 0,00 h 87 W/m 14,5 km/h (3 Bft)
08.06.2011 14:00 14,4 C 89 % 1004,6 hPa 0,2 l/m N-NW 0,00 h 144 W/m 23,6 km/h (4 Bft)
08.06.2011 15:00 13,6 C 87 % 1005,4 hPa 0,2 l/m N-NW 0,00 h 160 W/m 16,4 km/h (3 Bft)
08.06.2011 16:00 14,4 C 80 % 1006,1 hPa 0,0 l/m N-NW 0,00 h 208 W/m 17,8 km/h (3 Bft)
08.06.2011 17:00 14,1 C 71 % 1007,0 hPa 0,0 l/m N 0,00 h 129 W/m 14,8 km/h (3 Bft)
08.06.2011 18:00 13,9 C 72 % 1007,7 hPa 0,0 l/m N-NO 0,00 h 111 W/m 6,3 km/h (2 Bft)
08.06.2011 19:00 13,7 C 75 % 1008,4 hPa 0,0 l/m NW 0,00 h 34 W/m 3,7 km/h (1 Bft)
08.06.2011 20:00 12,8 C 84 % 1009,2 hPa 0,0 l/m W 0,00 h 13 W/m 7,0 km/h (2 Bft)
08.06.2011 21:00 12,1 C 89 % 1010,0 hPa 0,0 l/m W-SW 0,00 h 0 W/m 7,4 km/h (2 Bft)
08.06.2011 22:00 11,6 C 90 % 1010,8 hPa 0,0 l/m W 0,00 h 0 W/m 9,8 km/h (2 Bft)
08.06.2011 23:00 11,5 C 90 % 1011,0 hPa 0,2 l/m W 0,00 h 0 W/m 8,4 km/h (2 Bft)
09.06.2011 00:00 11,4 C 91 % 1011,3 hPa 0,0 l/m W 0,00 h 0 W/m 2,9 km/h (1 Bft)
09.06.2011 01:00 11,3 C 92 % 1011,6 hPa 0,0 l/m W 0,00 h 0 W/m 4,1 km/h (1 Bft)
09.06.2011 02:00 11,2 C 93 % 1011,7 hPa 0,0 l/m N 0,00 h 0 W/m 0,3 km/h (0 Bft)
09.06.2011 03:00 11,0 C 96 % 1011,7 hPa 0,2 l/m N 0,00 h 0 W/m 0,8 km/h (0 Bft)
09.06.2011 04:00 10,6 C 97 % 1011,9 hPa 1,2 l/m N 0,00 h 0 W/m 0,4 km/h (0 Bft)
09.06.2011 05:00 10,3 C 98 % 1012,0 hPa 0,4 l/m W 0,00 h 5 W/m 4,3 km/h (1 Bft)
09.06.2011 06:00 10,3 C 98 % 1012,4 hPa 0,4 l/m W 0,00 h 7 W/m 4,8 km/h (1 Bft)
09.06.2011 07:00 10,1 C 98 % 1012,9 hPa 1,8 l/m N-NO 0,00 h 22 W/m 11,3 km/h (2 Bft)
09.06.2011 08:00 10,3 C 98 % 1013,3 hPa 0,6 l/m N-NO 0,00 h 66 W/m 6,3 km/h (2 Bft)
09.06.2011 09:00 10,4 C 97 % 1013,7 hPa 0,4 l/m N-NO 0,00 h 89 W/m 9,5 km/h (2 Bft)
09.06.2011 10:00 10,7 C 97 % 1013,9 hPa 0,4 l/m N 0,00 h 127 W/m 8,2 km/h (2 Bft)
09.06.2011 11:00 10,9 C 97 % 1014,1 hPa 0,4 l/m N-NO 0,00 h 141 W/m 9,0 km/h (2 Bft)
09.06.2011 12:00 11,1 C 95 % 1014,3 hPa 0,0 l/m N-NO 0,00 h 142 W/m 8,7 km/h (2 Bft)
09.06.2011 13:00 11,2 C 94 % 1014,5 hPa 0,8 l/m NO 0,00 h 145 W/m 8,0 km/h (2 Bft)
09.06.2011 14:00 11,9 C 91 % 1014,7 hPa 0,0 l/m N-NO 0,00 h 113 W/m 6,7 km/h (2 Bft)
09.06.2011 15:00 11,8 C 93 % 1014,8 hPa 0,2 l/m W-NW 0,00 h 114 W/m 6,8 km/h (2 Bft)
09.06.2011 16:00 12,5 C 91 % 1014,8 hPa 0,0 l/m W-NW 0,00 h 172 W/m 5,7 km/h (1 Bft)
09.06.2011 17:00 12,5 C 91 % 1014,8 hPa 0,0 l/m W-NW 0,00 h 67 W/m 4,9 km/h (1 Bft)
09.06.2011 18:00 12,2 C 92 % 1015,2 hPa 0,0 l/m SW 0,00 h 29 W/m 3,3 km/h (1 Bft)
09.06.2011 19:00 11,7 C 96 % 1015,6 hPa 0,2 l/m SW 0,00 h 27 W/m 7,6 km/h (2 Bft)
09.06.2011 20:00 11,4 C 97 % 1016,1 hPa 0,0 l/m SW 0,00 h 20 W/m 5,1 km/h (1 Bft)
09.06.2011 21:00 11,0 C 97 % 1016,5 hPa 0,0 l/m SW 0,00 h 5 W/m 6,4 km/h (2 Bft)
09.06.2011 22:00 10,6 C 98 % 1016,9 hPa 0,0 l/m SW 0,00 h 0 W/m 4,9 km/h (1 Bft)
09.06.2011 23:00 10,4 C 98 % 1017,0 hPa 0,0 l/m SW 0,00 h 0 W/m 4,4 km/h (1 Bft)
10.06.2011 00:00 10,5 C 98 % 1016,9 hPa 0,0 l/m N 0,00 h 0 W/m 2,3 km/h (1 Bft)
10.06.2011 01:00 10,4 C 99 % 1016,6 hPa 0,2 l/m SW 0,00 h 0 W/m 3,6 km/h (1 Bft)
10.06.2011 02:00 10,3 C 98 % 1016,2 hPa 0,0 l/m N 0,00 h 0 W/m 2,1 km/h (1 Bft)
10.06.2011 03:00 10,2 C 99 % 1015,8 hPa 0,0 l/m N 0,00 h 0 W/m 0,0 km/h (0 Bft)
10.06.2011 04:00 10,2 C 99 % 1015,4 hPa 0,0 l/m N 0,00 h 0 W/m 0,4 km/h (0 Bft)
10.06.2011 05:00 9,8 C 99 % 1015,3 hPa 0,0 l/m N 0,00 h 8 W/m 0,1 km/h (0 Bft)
10.06.2011 06:00 10,0 C 99 % 1015,3 hPa 0,0 l/m N 0,00 h 19 W/m 0,0 km/h (0 Bft)
10.06.2011 07:00 10,3 C 99 % 1015,3 hPa 0,0 l/m N 0,00 h 38 W/m 0,5 km/h (0 Bft)
10.06.2011 08:00 10,8 C 97 % 1015,5 hPa 0,0 l/m N 0,00 h 79 W/m 0,3 km/h (0 Bft)
10.06.2011 09:00 12,0 C 91 % 1015,4 hPa 0,0 l/m O-SO 0,00 h 168 W/m 3,5 km/h (1 Bft)
10.06.2011 10:00 13,3 C 84 % 1015,1 hPa 0,0 l/m O-SO 0,33 h 385 W/m 5,6 km/h (1 Bft)
10.06.2011 11:00 14,7 C 76 % 1014,9 hPa 0,0 l/m O-NO 0,25 h 455 W/m 9,4 km/h (2 Bft)
10.06.2011 12:00 15,7 C 72 % 1014,7 hPa 0,0 l/m O-SO 0,17 h 407 W/m 8,4 km/h (2 Bft)
10.06.2011 13:00 17,1 C 67 % 1014,5 hPa 0,0 l/m O-SO 0,25 h 490 W/m 12,2 km/h (2 Bft)
10.06.2011 14:00 16,9 C 66 % 1014,1 hPa 0,0 l/m O-SO 0,58 h 635 W/m 10,3 km/h (2 Bft)
10.06.2011 15:00 18,6 C 62 % 1013,5 hPa 0,0 l/m S 0,83 h 767 W/m 9,9 km/h (2 Bft)
10.06.2011 16:00 18,8 C 56 % 1013,2 hPa 0,0 l/m O 0,58 h 504 W/m 8,7 km/h (2 Bft)
10.06.2011 17:00 16,6 C 68 % 1013,1 hPa 0,0 l/m N-NO 0,00 h 38 W/m 9,8 km/h (2 Bft)
10.06.2011 18:00 16,3 C 72 % 1013,0 hPa 0,0 l/m N-NO 0,33 h 247 W/m 9,8 km/h (2 Bft)
10.06.2011 19:00 17,1 C 67 % 1012,9 hPa 0,0 l/m NO 0,92 h 200 W/m 9,7 km/h (2 Bft)
10.06.2011 20:00 15,9 C 74 % 1013,1 hPa 0,0 l/m NO 0,00 h 21 W/m 3,7 km/h (1 Bft)
10.06.2011 21:00 14,4 C 84 % 1013,4 hPa 0,0 l/m N 0,00 h 6 W/m 0,8 km/h (0 Bft)
10.06.2011 22:00 13,9 C 86 % 1013,8 hPa 0,0 l/m NO 0,00 h 0 W/m 1,6 km/h (1 Bft)
10.06.2011 23:00 13,2 C 90 % 1013,6 hPa 0,0 l/m N 0,00 h 0 W/m 1,3 km/h (1 Bft)
11.06.2011 00:00 12,7 C 91 % 1013,4 hPa 0,0 l/m N 0,00 h 0 W/m 1,9 km/h (1 Bft)
11.06.2011 01:00 12,5 C 92 % 1013,3 hPa 0,0 l/m N 0,00 h 0 W/m 0,3 km/h (0 Bft)
11.06.2011 02:00 11,8 C 94 % 1013,2 hPa 0,0 l/m N 0,00 h 0 W/m 0,7 km/h (0 Bft)
11.06.2011 03:00 11,7 C 95 % 1013,3 hPa 0,0 l/m W-NW 0,00 h 0 W/m 2,3 km/h (1 Bft)
11.06.2011 04:00 12,0 C 91 % 1013,6 hPa 0,0 l/m W-NW 0,00 h 0 W/m 8,0 km/h (2 Bft)
11.06.2011 05:00 11,7 C 92 % 1014,0 hPa 0,2 l/m NW 0,00 h 5 W/m 1,9 km/h (1 Bft)
11.06.2011 06:00 11,4 C 95 % 1014,4 hPa 0,0 l/m N 0,00 h 23 W/m 1,9 km/h (1 Bft)
11.06.2011 07:00 11,9 C 95 % 1014,8 hPa 0,0 l/m N 0,00 h 47 W/m 1,6 km/h (1 Bft)
11.06.2011 08:00 12,4 C 94 % 1015,2 hPa 0,0 l/m NW 0,00 h 63 W/m 3,6 km/h (1 Bft)
11.06.2011 09:00 12,9 C 91 % 1015,4 hPa 0,2 l/m SW 0,00 h 118 W/m 5,5 km/h (1 Bft)
11.06.2011 10:00 13,3 C 92 % 1015,5 hPa 0,4 l/m SW 0,00 h 92 W/m 6,0 km/h (2 Bft)
11.06.2011 11:00 12,6 C 96 % 1015,7 hPa 0,8 l/m S-SW 0,00 h 84 W/m 9,9 km/h (2 Bft)
11.06.2011 12:00 12,2 C 95 % 1016,1 hPa 2,4 l/m SW 0,00 h 73 W/m 6,0 km/h (2 Bft)
11.06.2011 13:00 12,0 C 93 % 1016,3 hPa 0,2 l/m W-NW 0,00 h 115 W/m 3,2 km/h (1 Bft)
11.06.2011 14:00 12,9 C 94 % 1016,4 hPa 0,0 l/m W-SW 0,00 h 164 W/m 4,9 km/h (1 Bft)
11.06.2011 15:00 13,4 C 91 % 1016,4 hPa 0,0 l/m W-SW 0,00 h 121 W/m 6,1 km/h (2 Bft)
11.06.2011 16:00 13,6 C 89 % 1016,3 hPa 0,0 l/m W-SW 0,00 h 113 W/m 5,1 km/h (1 Bft)
11.06.2011 17:00 13,5 C 88 % 1016,3 hPa 0,0 l/m W-SW 0,00 h 71 W/m 5,9 km/h (2 Bft)
11.06.2011 18:00 13,3 C 89 % 1016,4 hPa 0,0 l/m W-SW 0,00 h 38 W/m 4,7 km/h (1 Bft)
11.06.2011 19:00 12,8 C 91 % 1016,6 hPa 0,0 l/m W-SW 0,00 h 30 W/m 4,0 km/h (1 Bft)
11.06.2011 20:00 12,6 C 90 % 1017,1 hPa 0,0 l/m N 0,00 h 17 W/m 1,6 km/h (1 Bft)
11.06.2011 21:00 11,9 C 93 % 1017,4 hPa 0,0 l/m N 0,00 h 6 W/m 1,6 km/h (1 Bft)
11.06.2011 22:00 10,9 C 96 % 1018,0 hPa 0,0 l/m N 0,00 h 0 W/m 0,3 km/h (0 Bft)
11.06.2011 23:00 10,4 C 97 % 1018,3 hPa 0,0 l/m N 0,00 h 0 W/m 0,1 km/h (0 Bft)
12.06.2011 00:00 10,1 C 97 % 1018,3 hPa 0,0 l/m N 0,00 h 0 W/m 0,0 km/h (0 Bft)
12.06.2011 01:00 9,5 C 97 % 1018,3 hPa 0,0 l/m N 0,00 h 0 W/m 0,0 km/h (0 Bft)
12.06.2011 02:00 9,0 C 98 % 1018,1 hPa 0,0 l/m N 0,00 h 0 W/m 0,0 km/h (0 Bft)
12.06.2011 03:00 8,1 C 98 % 1018,0 hPa 0,0 l/m N 0,00 h 0 W/m 0,0 km/h (0 Bft)
12.06.2011 04:00 7,5 C 98 % 1018,1 hPa 0,0 l/m N 0,00 h 0 W/m 0,0 km/h (0 Bft)
12.06.2011 05:00 6,9 C 98 % 1018,2 hPa 0,0 l/m N 0,00 h 9 W/m 0,0 km/h (0 Bft)
12.06.2011 06:00 7,2 C 99 % 1018,5 hPa 0,0 l/m N 0,17 h 60 W/m 0,0 km/h (0 Bft)
12.06.2011 07:00 9,1 C 99 % 1018,6 hPa 0,0 l/m N 1,00 h 242 W/m 0,0 km/h (0 Bft)
12.06.2011 08:00 12,2 C 90 % 1018,5 hPa 0,0 l/m N 1,00 h 413 W/m 0,0 km/h (0 Bft)
12.06.2011 09:00 14,7 C 78 % 1018,5 hPa 0,0 l/m N 1,00 h 594 W/m 0,0 km/h (0 Bft)
12.06.2011 10:00 16,3 C 67 % 1018,1 hPa 0,0 l/m O 0,75 h 575 W/m 3,9 km/h (1 Bft)
12.06.2011 11:00 17,4 C 62 % 1017,9 hPa 0,0 l/m O 0,92 h 829 W/m 7,9 km/h (2 Bft)
12.06.2011 12:00 18,6 C 55 % 1017,6 hPa 0,0 l/m O-SO 0,75 h 764 W/m 6,3 km/h (2 Bft)
12.06.2011 13:00 19,4 C 52 % 1017,1 hPa 0,0 l/m O-SO 0,50 h 622 W/m 9,0 km/h (2 Bft)
12.06.2011 14:00 20,3 C 48 % 1016,6 hPa 0,0 l/m N-NO 0,92 h 897 W/m 8,3 km/h (2 Bft)
12.06.2011 15:00 21,2 C 45 % 1015,9 hPa 0,0 l/m O-SO 1,00 h 910 W/m 8,3 km/h (2 Bft)
12.06.2011 16:00 20,9 C 44 % 1015,5 hPa 0,0 l/m O 0,58 h 463 W/m 8,0 km/h (2 Bft)
12.06.2011 17:00 20,8 C 45 % 1015,1 hPa 0,0 l/m O-NO 0,58 h 377 W/m 9,5 km/h (2 Bft)
12.06.2011 18:00 20,8 C 45 % 1014,9 hPa 0,0 l/m O 0,92 h 355 W/m 4,5 km/h (1 Bft)
12.06.2011 19:00 20,1 C 48 % 1014,7 hPa 0,0 l/m O-SO 0,58 h 149 W/m 5,5 km/h (1 Bft)
12.06.2011 20:00 19,0 C 55 % 1014,8 hPa 0,0 l/m N 0,42 h 57 W/m 1,6 km/h (1 Bft)
12.06.2011 21:00 16,0 C 71 % 1014,9 hPa 0,0 l/m N 0,00 h 7 W/m 0,0 km/h (0 Bft)
12.06.2011 22:00 14,1 C 80 % 1015,1 hPa 0,0 l/m N 0,00 h 0 W/m 0,0 km/h (0 Bft)
12.06.2011 23:00 13,6 C 82 % 1015,1 hPa 0,0 l/m N 0,00 h 0 W/m 0,5 km/h (0 Bft)
Min-Datum _ 12.06.11 12.06.11 07.06.11 - - - - 06.06.11
_ Min-Zeit 05:30 15:55 20:55 - - - - 00:00
Minimum _ 6,7 C 41 % 999,6 hPa - - - - 0,0 km/h (0 Bft)
Max-Datum _ 07.06.11 10.06.11 12.06.11 08.06.11 - 06.06.11 06.06.11 06.06.11
_ Max-Zeit 16:10 01:25 07:45 01:30 - 11:05 12:50 15:25
Maximum _ 24,6 C 99 % 1018,7 hPa 3,6 l/m - 0,08 h 1097 W/m 46,7 km/h
SW (6 Bft)
Durchschnitt _ 14,3 C 84 % 1010,4 hPa #18,8 l/m W-SW #27:05 h 218 W/m 5,9 km/h (2 Bft)